sensor_id;sensor_type;location;lat;lon;timestamp;P1;durP1;ratioP1;P2;durP2;ratioP2
66680;SDS011;53575;51.366;12.350;2022-07-23T00:00:29;8.13;;;5.30;;
66680;SDS011;53575;51.366;12.350;2022-07-23T00:02:54;6.72;;;4.70;;
66680;SDS011;53575;51.366;12.350;2022-07-23T00:05:20;6.40;;;5.25;;
66680;SDS011;53575;51.366;12.350;2022-07-23T00:07:45;7.82;;;5.35;;
66680;SDS011;53575;51.366;12.350;2022-07-23T00:10:10;8.10;;;5.53;;
66680;SDS011;53575;51.366;12.350;2022-07-23T00:12:36;5.28;;;4.78;;
66680;SDS011;53575;51.366;12.350;2022-07-23T00:15:03;5.65;;;4.57;;
66680;SDS011;53575;51.366;12.350;2022-07-23T00:17:30;5.47;;;4.38;;
66680;SDS011;53575;51.366;12.350;2022-07-23T00:19:55;7.82;;;5.07;;
66680;SDS011;53575;51.366;12.350;2022-07-23T00:22:20;7.75;;;4.70;;
66680;SDS011;53575;51.366;12.350;2022-07-23T00:24:46;5.30;;;4.80;;
66680;SDS011;53575;51.366;12.350;2022-07-23T00:27:11;5.97;;;4.80;;
66680;SDS011;53575;51.366;12.350;2022-07-23T00:29:37;8.25;;;5.60;;
66680;SDS011;53575;51.366;12.350;2022-07-23T00:32:02;6.80;;;4.88;;
66680;SDS011;53575;51.366;12.350;2022-07-23T00:34:28;6.03;;;5.43;;
66680;SDS011;53575;51.366;12.350;2022-07-23T00:36:53;6.20;;;5.60;;
66680;SDS011;53575;51.366;12.350;2022-07-23T00:39:19;6.03;;;5.00;;
66680;SDS011;53575;51.366;12.350;2022-07-23T00:41:46;7.38;;;4.85;;
66680;SDS011;53575;51.366;12.350;2022-07-23T00:44:15;8.90;;;5.63;;
66680;SDS011;53575;51.366;12.350;2022-07-23T00:46:55;6.75;;;4.82;;
66680;SDS011;53575;51.366;12.350;2022-07-23T00:49:23;5.63;;;5.03;;
66680;SDS011;53575;51.366;12.350;2022-07-23T00:51:50;6.63;;;5.80;;
66680;SDS011;53575;51.366;12.350;2022-07-23T00:54:17;6.47;;;5.05;;
66680;SDS011;53575;51.366;12.350;2022-07-23T00:56:44;8.07;;;5.03;;
66680;SDS011;53575;51.366;12.350;2022-07-23T00:59:10;5.82;;;5.22;;
66680;SDS011;53575;51.366;12.350;2022-07-23T01:01:36;7.40;;;5.57;;
66680;SDS011;53575;51.366;12.350;2022-07-23T01:04:01;6.28;;;5.18;;
66680;SDS011;53575;51.366;12.350;2022-07-23T01:06:27;8.45;;;6.20;;
66680;SDS011;53575;51.366;12.350;2022-07-23T01:08:53;8.45;;;5.38;;
66680;SDS011;53575;51.366;12.350;2022-07-23T01:11:19;6.75;;;5.35;;
66680;SDS011;53575;51.366;12.350;2022-07-23T01:13:46;9.20;;;5.55;;
66680;SDS011;53575;51.366;12.350;2022-07-23T01:16:12;7.95;;;5.38;;
66680;SDS011;53575;51.366;12.350;2022-07-23T01:18:38;6.13;;;5.18;;
66680;SDS011;53575;51.366;12.350;2022-07-23T01:21:03;8.98;;;5.45;;
66680;SDS011;53575;51.366;12.350;2022-07-23T01:23:29;6.50;;;5.47;;
66680;SDS011;53575;51.366;12.350;2022-07-23T01:25:54;6.70;;;5.68;;
66680;SDS011;53575;51.366;12.350;2022-07-23T01:28:20;6.80;;;5.63;;
66680;SDS011;53575;51.366;12.350;2022-07-23T01:30:46;7.78;;;5.40;;
66680;SDS011;53575;51.366;12.350;2022-07-23T01:33:12;6.85;;;5.43;;
66680;SDS011;53575;51.366;12.350;2022-07-23T01:35:37;7.00;;;5.60;;
66680;SDS011;53575;51.366;12.350;2022-07-23T01:38:03;7.20;;;5.38;;
66680;SDS011;53575;51.366;12.350;2022-07-23T01:40:28;6.80;;;5.32;;
66680;SDS011;53575;51.366;12.350;2022-07-23T01:42:53;7.75;;;6.45;;
66680;SDS011;53575;51.366;12.350;2022-07-23T01:45:19;10.88;;;5.18;;
66680;SDS011;53575;51.366;12.350;2022-07-23T01:47:44;5.40;;;4.82;;
66680;SDS011;53575;51.366;12.350;2022-07-23T01:50:10;9.48;;;5.20;;
66680;SDS011;53575;51.366;12.350;2022-07-23T01:52:35;6.07;;;5.47;;
66680;SDS011;53575;51.366;12.350;2022-07-23T01:55:01;8.07;;;5.88;;
66680;SDS011;53575;51.366;12.350;2022-07-23T01:57:26;6.30;;;5.38;;
66680;SDS011;53575;51.366;12.350;2022-07-23T01:59:51;5.72;;;5.13;;
66680;SDS011;53575;51.366;12.350;2022-07-23T02:02:17;6.80;;;5.32;;
66680;SDS011;53575;51.366;12.350;2022-07-23T02:04:42;7.43;;;6.03;;
66680;SDS011;53575;51.366;12.350;2022-07-23T02:07:07;7.95;;;5.60;;
66680;SDS011;53575;51.366;12.350;2022-07-23T02:09:33;9.55;;;5.72;;
66680;SDS011;53575;51.366;12.350;2022-07-23T02:11:59;6.93;;;5.13;;
66680;SDS011;53575;51.366;12.350;2022-07-23T02:14:25;8.52;;;5.30;;
66680;SDS011;53575;51.366;12.350;2022-07-23T02:16:51;8.02;;;5.47;;
66680;SDS011;53575;51.366;12.350;2022-07-23T02:19:16;8.15;;;6.15;;
66680;SDS011;53575;51.366;12.350;2022-07-23T02:21:41;7.43;;;5.47;;
66680;SDS011;53575;51.366;12.350;2022-07-23T02:24:07;9.50;;;5.22;;
66680;SDS011;53575;51.366;12.350;2022-07-23T02:26:33;6.95;;;5.60;;
66680;SDS011;53575;51.366;12.350;2022-07-23T02:28:59;5.97;;;5.35;;
66680;SDS011;53575;51.366;12.350;2022-07-23T02:31:26;10.05;;;5.70;;
66680;SDS011;53575;51.366;12.350;2022-07-23T02:33:52;7.32;;;5.68;;
66680;SDS011;53575;51.366;12.350;2022-07-23T02:36:17;7.60;;;5.80;;
66680;SDS011;53575;51.366;12.350;2022-07-23T02:38:42;6.93;;;5.65;;
66680;SDS011;53575;51.366;12.350;2022-07-23T02:41:08;8.40;;;5.45;;
66680;SDS011;53575;51.366;12.350;2022-07-23T02:43:33;7.72;;;5.78;;
66680;SDS011;53575;51.366;12.350;2022-07-23T02:45:59;9.43;;;5.78;;
66680;SDS011;53575;51.366;12.350;2022-07-23T02:48:25;6.15;;;5.32;;
66680;SDS011;53575;51.366;12.350;2022-07-23T02:50:51;7.00;;;5.40;;
66680;SDS011;53575;51.366;12.350;2022-07-23T02:53:17;9.98;;;6.03;;
66680;SDS011;53575;51.366;12.350;2022-07-23T02:55:42;8.65;;;5.38;;
66680;SDS011;53575;51.366;12.350;2022-07-23T02:58:08;7.65;;;5.93;;
66680;SDS011;53575;51.366;12.350;2022-07-23T03:00:33;7.13;;;5.70;;
66680;SDS011;53575;51.366;12.350;2022-07-23T03:02:59;7.15;;;5.47;;
66680;SDS011;53575;51.366;12.350;2022-07-23T03:05:24;13.25;;;6.53;;
66680;SDS011;53575;51.366;12.350;2022-07-23T03:07:49;9.70;;;6.00;;
66680;SDS011;53575;51.366;12.350;2022-07-23T03:10:15;9.23;;;6.60;;
66680;SDS011;53575;51.366;12.350;2022-07-23T03:12:40;9.75;;;6.38;;
66680;SDS011;53575;51.366;12.350;2022-07-23T03:15:06;10.10;;;5.90;;
66680;SDS011;53575;51.366;12.350;2022-07-23T03:17:32;8.40;;;5.53;;
66680;SDS011;53575;51.366;12.350;2022-07-23T03:19:57;6.65;;;5.95;;
66680;SDS011;53575;51.366;12.350;2022-07-23T03:22:23;9.93;;;6.60;;
66680;SDS011;53575;51.366;12.350;2022-07-23T03:24:48;10.93;;;6.20;;
66680;SDS011;53575;51.366;12.350;2022-07-23T03:27:26;10.50;;;6.78;;
66680;SDS011;53575;51.366;12.350;2022-07-23T03:29:54;8.25;;;5.90;;
66680;SDS011;53575;51.366;12.350;2022-07-23T03:32:21;8.00;;;6.30;;
66680;SDS011;53575;51.366;12.350;2022-07-23T03:34:47;8.75;;;5.82;;
66680;SDS011;53575;51.366;12.350;2022-07-23T03:37:13;8.70;;;6.60;;
66680;SDS011;53575;51.366;12.350;2022-07-23T03:39:38;10.05;;;6.10;;
66680;SDS011;53575;51.366;12.350;2022-07-23T03:42:04;10.05;;;6.10;;
66680;SDS011;53575;51.366;12.350;2022-07-23T03:44:29;6.95;;;5.65;;
66680;SDS011;53575;51.366;12.350;2022-07-23T03:46:55;10.43;;;6.28;;
66680;SDS011;53575;51.366;12.350;2022-07-23T03:49:20;8.18;;;5.88;;
66680;SDS011;53575;51.366;12.350;2022-07-23T03:51:46;6.28;;;4.97;;
66680;SDS011;53575;51.366;12.350;2022-07-23T03:54:11;10.60;;;5.90;;
66680;SDS011;53575;51.366;12.350;2022-07-23T03:56:37;7.43;;;5.45;;
66680;SDS011;53575;51.366;12.350;2022-07-23T03:59:02;7.63;;;5.47;;
66680;SDS011;53575;51.366;12.350;2022-07-23T04:01:28;7.93;;;4.97;;
66680;SDS011;53575;51.366;12.350;2022-07-23T04:03:53;6.45;;;5.15;;
66680;SDS011;53575;51.366;12.350;2022-07-23T04:06:18;7.30;;;5.18;;
66680;SDS011;53575;51.366;12.350;2022-07-23T04:08:44;7.78;;;4.93;;
66680;SDS011;53575;51.366;12.350;2022-07-23T04:11:09;6.18;;;5.57;;
66680;SDS011;53575;51.366;12.350;2022-07-23T04:13:35;8.07;;;5.82;;
66680;SDS011;53575;51.366;12.350;2022-07-23T04:16:00;11.32;;;6.05;;
66680;SDS011;53575;51.366;12.350;2022-07-23T04:18:25;7.55;;;5.75;;
66680;SDS011;53575;51.366;12.350;2022-07-23T04:20:51;8.25;;;5.88;;
66680;SDS011;53575;51.366;12.350;2022-07-23T04:23:17;5.95;;;5.32;;
66680;SDS011;53575;51.366;12.350;2022-07-23T04:25:42;9.82;;;5.72;;
66680;SDS011;53575;51.366;12.350;2022-07-23T04:28:08;7.88;;;5.40;;
66680;SDS011;53575;51.366;12.350;2022-07-23T04:30:33;7.68;;;5.18;;
66680;SDS011;53575;51.366;12.350;2022-07-23T04:32:59;10.30;;;6.28;;
66680;SDS011;53575;51.366;12.350;2022-07-23T04:35:24;10.95;;;6.03;;
66680;SDS011;53575;51.366;12.350;2022-07-23T04:37:49;9.35;;;5.88;;
66680;SDS011;53575;51.366;12.350;2022-07-23T04:40:15;10.63;;;5.93;;
66680;SDS011;53575;51.366;12.350;2022-07-23T04:42:41;8.13;;;5.45;;
66680;SDS011;53575;51.366;12.350;2022-07-23T04:45:06;11.30;;;6.20;;
66680;SDS011;53575;51.366;12.350;2022-07-23T04:47:32;13.35;;;6.72;;
66680;SDS011;53575;51.366;12.350;2022-07-23T04:49:57;13.20;;;6.57;;
66680;SDS011;53575;51.366;12.350;2022-07-23T04:52:23;14.05;;;7.25;;
66680;SDS011;53575;51.366;12.350;2022-07-23T04:54:49;11.25;;;6.90;;
66680;SDS011;53575;51.366;12.350;2022-07-23T04:57:14;11.18;;;7.00;;
66680;SDS011;53575;51.366;12.350;2022-07-23T04:59:40;9.25;;;6.38;;
66680;SDS011;53575;51.366;12.350;2022-07-23T05:02:05;10.73;;;6.88;;
66680;SDS011;53575;51.366;12.350;2022-07-23T05:04:31;10.68;;;6.43;;
66680;SDS011;53575;51.366;12.350;2022-07-23T05:06:57;11.55;;;7.03;;
66680;SDS011;53575;51.366;12.350;2022-07-23T05:09:22;14.70;;;7.00;;
66680;SDS011;53575;51.366;12.350;2022-07-23T05:11:48;15.57;;;7.25;;
66680;SDS011;53575;51.366;12.350;2022-07-23T05:14:14;11.90;;;6.60;;
66680;SDS011;53575;51.366;12.350;2022-07-23T05:16:39;8.88;;;6.40;;
66680;SDS011;53575;51.366;12.350;2022-07-23T05:19:05;10.45;;;6.25;;
66680;SDS011;53575;51.366;12.350;2022-07-23T05:21:30;11.23;;;6.85;;
66680;SDS011;53575;51.366;12.350;2022-07-23T05:23:56;12.43;;;6.72;;
66680;SDS011;53575;51.366;12.350;2022-07-23T05:26:21;8.23;;;6.55;;
66680;SDS011;53575;51.366;12.350;2022-07-23T05:28:47;11.60;;;7.00;;
66680;SDS011;53575;51.366;12.350;2022-07-23T05:31:12;11.00;;;7.25;;
66680;SDS011;53575;51.366;12.350;2022-07-23T05:33:37;10.40;;;6.90;;
66680;SDS011;53575;51.366;12.350;2022-07-23T05:36:03;13.10;;;6.78;;
66680;SDS011;53575;51.366;12.350;2022-07-23T05:38:29;10.75;;;6.18;;
66680;SDS011;53575;51.366;12.350;2022-07-23T05:40:55;9.02;;;6.45;;
66680;SDS011;53575;51.366;12.350;2022-07-23T05:43:20;11.20;;;6.47;;
66680;SDS011;53575;51.366;12.350;2022-07-23T05:45:46;8.40;;;6.90;;
66680;SDS011;53575;51.366;12.350;2022-07-23T05:48:11;11.50;;;6.72;;
66680;SDS011;53575;51.366;12.350;2022-07-23T05:50:36;8.02;;;6.40;;
66680;SDS011;53575;51.366;12.350;2022-07-23T05:53:02;9.70;;;7.28;;
66680;SDS011;53575;51.366;12.350;2022-07-23T05:55:27;8.60;;;6.28;;
66680;SDS011;53575;51.366;12.350;2022-07-23T05:57:56;8.73;;;7.15;;
66680;SDS011;53575;51.366;12.350;2022-07-23T06:00:22;10.60;;;7.03;;
66680;SDS011;53575;51.366;12.350;2022-07-23T06:02:47;15.43;;;6.80;;
66680;SDS011;53575;51.366;12.350;2022-07-23T06:05:12;14.93;;;6.93;;
66680;SDS011;53575;51.366;12.350;2022-07-23T06:07:38;9.20;;;6.25;;
66680;SDS011;53575;51.366;12.350;2022-07-23T06:10:04;10.45;;;7.25;;
66680;SDS011;53575;51.366;12.350;2022-07-23T06:12:30;12.27;;;6.85;;
66680;SDS011;53575;51.366;12.350;2022-07-23T06:14:55;9.00;;;6.93;;
66680;SDS011;53575;51.366;12.350;2022-07-23T06:17:20;13.10;;;7.20;;
66680;SDS011;53575;51.366;12.350;2022-07-23T06:19:46;9.27;;;7.03;;
66680;SDS011;53575;51.366;12.350;2022-07-23T06:22:11;10.45;;;7.25;;
66680;SDS011;53575;51.366;12.350;2022-07-23T06:24:37;9.68;;;6.60;;
66680;SDS011;53575;51.366;12.350;2022-07-23T06:27:03;11.38;;;6.07;;
66680;SDS011;53575;51.366;12.350;2022-07-23T06:29:28;11.88;;;6.88;;
66680;SDS011;53575;51.366;12.350;2022-07-23T06:31:54;11.48;;;7.13;;
66680;SDS011;53575;51.366;12.350;2022-07-23T06:34:19;10.48;;;6.32;;
66680;SDS011;53575;51.366;12.350;2022-07-23T06:36:44;10.18;;;7.07;;
66680;SDS011;53575;51.366;12.350;2022-07-23T06:39:10;11.88;;;7.20;;
66680;SDS011;53575;51.366;12.350;2022-07-23T06:41:35;10.45;;;7.20;;
66680;SDS011;53575;51.366;12.350;2022-07-23T06:44:01;11.68;;;6.85;;
66680;SDS011;53575;51.366;12.350;2022-07-23T06:46:26;11.95;;;7.70;;
66680;SDS011;53575;51.366;12.350;2022-07-23T06:48:51;11.18;;;7.53;;
66680;SDS011;53575;51.366;12.350;2022-07-23T06:51:17;11.60;;;6.47;;
66680;SDS011;53575;51.366;12.350;2022-07-23T06:53:42;7.68;;;6.20;;
66680;SDS011;53575;51.366;12.350;2022-07-23T06:56:08;12.43;;;7.60;;
66680;SDS011;53575;51.366;12.350;2022-07-23T06:58:33;12.68;;;7.40;;
66680;SDS011;53575;51.366;12.350;2022-07-23T07:00:59;11.20;;;6.47;;
66680;SDS011;53575;51.366;12.350;2022-07-23T07:03:24;11.15;;;7.60;;
66680;SDS011;53575;51.366;12.350;2022-07-23T07:05:50;9.80;;;7.30;;
66680;SDS011;53575;51.366;12.350;2022-07-23T07:08:15;10.93;;;6.70;;
66680;SDS011;53575;51.366;12.350;2022-07-23T07:10:41;10.48;;;6.10;;
66680;SDS011;53575;51.366;12.350;2022-07-23T07:13:06;8.85;;;7.35;;
66680;SDS011;53575;51.366;12.350;2022-07-23T07:15:32;10.70;;;7.00;;
66680;SDS011;53575;51.366;12.350;2022-07-23T07:17:57;12.45;;;7.25;;
66680;SDS011;53575;51.366;12.350;2022-07-23T07:20:23;12.77;;;7.30;;
66680;SDS011;53575;51.366;12.350;2022-07-23T07:22:48;11.18;;;7.78;;
66680;SDS011;53575;51.366;12.350;2022-07-23T07:25:14;11.30;;;7.78;;
66680;SDS011;53575;51.366;12.350;2022-07-23T07:27:39;14.60;;;7.97;;
66680;SDS011;53575;51.366;12.350;2022-07-23T07:30:05;11.75;;;7.80;;
66680;SDS011;53575;51.366;12.350;2022-07-23T07:32:32;11.23;;;7.47;;
66680;SDS011;53575;51.366;12.350;2022-07-23T07:34:57;11.65;;;7.30;;
66680;SDS011;53575;51.366;12.350;2022-07-23T07:37:23;14.50;;;7.30;;
66680;SDS011;53575;51.366;12.350;2022-07-23T07:39:49;10.00;;;8.10;;
66680;SDS011;53575;51.366;12.350;2022-07-23T07:42:14;12.00;;;7.80;;
66680;SDS011;53575;51.366;12.350;2022-07-23T07:44:39;12.50;;;8.10;;
66680;SDS011;53575;51.366;12.350;2022-07-23T07:47:05;15.10;;;8.30;;
66680;SDS011;53575;51.366;12.350;2022-07-23T07:49:30;11.13;;;8.52;;
66680;SDS011;53575;51.366;12.350;2022-07-23T07:51:55;13.30;;;8.27;;
66680;SDS011;53575;51.366;12.350;2022-07-23T07:54:21;11.07;;;7.25;;
66680;SDS011;53575;51.366;12.350;2022-07-23T07:56:46;9.75;;;8.05;;
66680;SDS011;53575;51.366;12.350;2022-07-23T07:59:12;9.93;;;8.13;;
66680;SDS011;53575;51.366;12.350;2022-07-23T08:01:39;11.60;;;8.63;;
66680;SDS011;53575;51.366;12.350;2022-07-23T08:04:05;10.00;;;8.02;;
66680;SDS011;53575;51.366;12.350;2022-07-23T08:06:30;11.98;;;9.10;;
66680;SDS011;53575;51.366;12.350;2022-07-23T08:08:56;10.10;;;7.97;;
66680;SDS011;53575;51.366;12.350;2022-07-23T08:11:21;13.95;;;10.07;;
66680;SDS011;53575;51.366;12.350;2022-07-23T08:13:47;15.70;;;9.68;;
66680;SDS011;53575;51.366;12.350;2022-07-23T08:16:12;10.93;;;9.38;;
66680;SDS011;53575;51.366;12.350;2022-07-23T08:18:38;13.15;;;9.48;;
66680;SDS011;53575;51.366;12.350;2022-07-23T08:21:03;12.63;;;9.15;;
66680;SDS011;53575;51.366;12.350;2022-07-23T08:23:30;11.98;;;8.40;;
66680;SDS011;53575;51.366;12.350;2022-07-23T08:25:56;9.40;;;8.40;;
66680;SDS011;53575;51.366;12.350;2022-07-23T08:28:22;13.55;;;8.52;;
66680;SDS011;53575;51.366;12.350;2022-07-23T08:30:47;12.02;;;8.75;;
66680;SDS011;53575;51.366;12.350;2022-07-23T08:33:14;11.63;;;8.70;;
66680;SDS011;53575;51.366;12.350;2022-07-23T08:35:48;15.00;;;10.15;;
66680;SDS011;53575;51.366;12.350;2022-07-23T08:38:16;12.88;;;9.85;;
66680;SDS011;53575;51.366;12.350;2022-07-23T08:40:44;13.13;;;9.77;;
66680;SDS011;53575;51.366;12.350;2022-07-23T08:43:12;13.25;;;10.13;;
66680;SDS011;53575;51.366;12.350;2022-07-23T08:45:43;12.40;;;10.30;;
66680;SDS011;53575;51.366;12.350;2022-07-23T08:48:11;14.77;;;10.55;;
66680;SDS011;53575;51.366;12.350;2022-07-23T08:50:42;12.98;;;10.95;;
66680;SDS011;53575;51.366;12.350;2022-07-23T08:53:09;13.67;;;10.83;;
66680;SDS011;53575;51.366;12.350;2022-07-23T08:55:35;12.30;;;10.38;;
66680;SDS011;53575;51.366;12.350;2022-07-23T08:58:00;11.07;;;9.60;;
66680;SDS011;53575;51.366;12.350;2022-07-23T09:00:26;11.23;;;9.05;;
66680;SDS011;53575;51.366;12.350;2022-07-23T09:02:52;9.98;;;8.75;;
66680;SDS011;53575;51.366;12.350;2022-07-23T09:05:18;10.18;;;8.63;;
66680;SDS011;53575;51.366;12.350;2022-07-23T09:13:28;12.38;;;10.13;;
66680;SDS011;53575;51.366;12.350;2022-07-23T09:18:44;13.82;;;10.70;;
66680;SDS011;53575;51.366;12.350;2022-07-23T09:21:19;14.35;;;11.40;;
66680;SDS011;53575;51.366;12.350;2022-07-23T09:26:18;11.57;;;9.95;;
66680;SDS011;53575;51.366;12.350;2022-07-23T09:29:10;21.00;;;14.63;;
66680;SDS011;53575;51.366;12.350;2022-07-23T09:31:50;12.35;;;10.18;;
66680;SDS011;53575;51.366;12.350;2022-07-23T09:36:55;16.33;;;10.25;;
66680;SDS011;53575;51.366;12.350;2022-07-23T09:39:27;13.27;;;8.75;;
66680;SDS011;53575;51.366;12.350;2022-07-23T09:41:57;13.90;;;9.07;;
66680;SDS011;53575;51.366;12.350;2022-07-23T09:44:40;12.93;;;9.13;;
66680;SDS011;53575;51.366;12.350;2022-07-23T09:47:07;11.57;;;8.18;;
66680;SDS011;53575;51.366;12.350;2022-07-23T09:49:32;12.80;;;9.30;;
66680;SDS011;53575;51.366;12.350;2022-07-23T09:51:58;13.50;;;8.88;;
66680;SDS011;53575;51.366;12.350;2022-07-23T09:54:37;10.23;;;7.40;;
66680;SDS011;53575;51.366;12.350;2022-07-23T09:57:11;12.43;;;7.85;;
66680;SDS011;53575;51.366;12.350;2022-07-23T09:59:39;13.65;;;8.02;;
66680;SDS011;53575;51.366;12.350;2022-07-23T10:02:07;9.32;;;7.78;;
66680;SDS011;53575;51.366;12.350;2022-07-23T10:04:34;11.35;;;8.20;;
66680;SDS011;53575;51.366;12.350;2022-07-23T10:07:01;12.30;;;7.55;;
66680;SDS011;53575;51.366;12.350;2022-07-23T10:09:33;10.93;;;7.85;;
66680;SDS011;53575;51.366;12.350;2022-07-23T10:12:01;8.80;;;7.28;;
66680;SDS011;53575;51.366;12.350;2022-07-23T10:14:56;10.45;;;7.72;;
66680;SDS011;53575;51.366;12.350;2022-07-23T10:17:22;10.98;;;8.45;;
66680;SDS011;53575;51.366;12.350;2022-07-23T10:19:48;32.53;;;20.70;;
66680;SDS011;53575;51.366;12.350;2022-07-23T10:22:27;13.68;;;9.48;;
66680;SDS011;53575;51.366;12.350;2022-07-23T10:33:32;13.45;;;9.48;;
66680;SDS011;53575;51.366;12.350;2022-07-23T10:39:10;14.05;;;10.32;;
66680;SDS011;53575;51.366;12.350;2022-07-23T10:41:42;13.35;;;10.63;;
66680;SDS011;53575;51.366;12.350;2022-07-23T10:44:09;14.90;;;11.07;;
66680;SDS011;53575;51.366;12.350;2022-07-23T10:46:34;15.07;;;10.90;;
66680;SDS011;53575;51.366;12.350;2022-07-23T10:49:27;19.25;;;12.32;;
66680;SDS011;53575;51.366;12.350;2022-07-23T10:54:43;17.38;;;12.10;;
66680;SDS011;53575;51.366;12.350;2022-07-23T10:57:32;16.70;;;11.88;;
66680;SDS011;53575;51.366;12.350;2022-07-23T11:00:13;29.35;;;20.20;;
66680;SDS011;53575;51.366;12.350;2022-07-23T11:02:42;19.93;;;12.83;;
66680;SDS011;53575;51.366;12.350;2022-07-23T11:05:09;16.88;;;12.27;;
66680;SDS011;53575;51.366;12.350;2022-07-23T11:07:37;19.52;;;13.30;;
66680;SDS011;53575;51.366;12.350;2022-07-23T11:10:38;16.17;;;12.63;;
66680;SDS011;53575;51.366;12.350;2022-07-23T11:16:22;15.25;;;11.75;;
66680;SDS011;53575;51.366;12.350;2022-07-23T11:18:54;17.30;;;12.77;;
66680;SDS011;53575;51.366;12.350;2022-07-23T11:34:32;16.70;;;11.70;;
66680;SDS011;53575;51.366;12.350;2022-07-23T11:36:59;16.02;;;11.38;;
66680;SDS011;53575;51.366;12.350;2022-07-23T11:39:25;13.50;;;11.80;;
66680;SDS011;53575;51.366;12.350;2022-07-23T11:41:54;17.70;;;12.38;;
66680;SDS011;53575;51.366;12.350;2022-07-23T11:44:24;13.63;;;11.88;;
66680;SDS011;53575;51.366;12.350;2022-07-23T11:46:56;19.08;;;10.27;;
66680;SDS011;53575;51.366;12.350;2022-07-23T11:49:26;17.38;;;12.38;;
66680;SDS011;53575;51.366;12.350;2022-07-23T11:52:05;13.32;;;9.77;;
66680;SDS011;53575;51.366;12.350;2022-07-23T11:54:32;19.02;;;11.73;;
66680;SDS011;53575;51.366;12.350;2022-07-23T11:57:00;16.55;;;12.55;;
66680;SDS011;53575;51.366;12.350;2022-07-23T11:59:27;14.93;;;12.10;;
66680;SDS011;53575;51.366;12.350;2022-07-23T12:01:56;16.63;;;13.68;;
66680;SDS011;53575;51.366;12.350;2022-07-23T12:04:47;14.25;;;12.57;;
66680;SDS011;53575;51.366;12.350;2022-07-23T12:07:22;14.15;;;11.65;;
66680;SDS011;53575;51.366;12.350;2022-07-23T12:09:54;15.38;;;12.48;;
66680;SDS011;53575;51.366;12.350;2022-07-23T12:12:22;16.92;;;12.45;;
66680;SDS011;53575;51.366;12.350;2022-07-23T12:14:49;16.38;;;13.23;;
66680;SDS011;53575;51.366;12.350;2022-07-23T12:17:17;15.48;;;11.27;;
66680;SDS011;53575;51.366;12.350;2022-07-23T12:19:43;19.92;;;12.45;;
66680;SDS011;53575;51.366;12.350;2022-07-23T12:22:09;19.10;;;13.75;;
66680;SDS011;53575;51.366;12.350;2022-07-23T12:27:21;19.73;;;12.90;;
66680;SDS011;53575;51.366;12.350;2022-07-23T12:29:47;17.25;;;13.27;;
66680;SDS011;53575;51.366;12.350;2022-07-23T12:32:19;16.27;;;14.30;;
66680;SDS011;53575;51.366;12.350;2022-07-23T12:35:01;17.73;;;13.60;;
66680;SDS011;53575;51.366;12.350;2022-07-23T12:37:35;17.33;;;14.30;;
66680;SDS011;53575;51.366;12.350;2022-07-23T12:42:49;14.00;;;12.43;;
66680;SDS011;53575;51.366;12.350;2022-07-23T12:45:17;15.45;;;11.88;;
66680;SDS011;53575;51.366;12.350;2022-07-23T12:53:03;13.45;;;11.32;;
66680;SDS011;53575;51.366;12.350;2022-07-23T12:55:29;15.80;;;11.85;;
66680;SDS011;53575;51.366;12.350;2022-07-23T12:58:02;14.45;;;12.75;;
66680;SDS011;53575;51.366;12.350;2022-07-23T13:00:29;17.30;;;12.57;;
66680;SDS011;53575;51.366;12.350;2022-07-23T13:02:55;15.30;;;11.43;;
66680;SDS011;53575;51.366;12.350;2022-07-23T13:05:21;13.68;;;10.60;;
66680;SDS011;53575;51.366;12.350;2022-07-23T13:07:46;12.63;;;10.95;;
66680;SDS011;53575;51.366;12.350;2022-07-23T13:10:11;12.90;;;11.52;;
66680;SDS011;53575;51.366;12.350;2022-07-23T13:12:37;16.58;;;11.60;;
66680;SDS011;53575;51.366;12.350;2022-07-23T13:15:02;14.35;;;12.25;;
66680;SDS011;53575;51.366;12.350;2022-07-23T13:17:28;13.27;;;11.43;;
66680;SDS011;53575;51.366;12.350;2022-07-23T13:19:53;14.00;;;11.68;;
66680;SDS011;53575;51.366;12.350;2022-07-23T13:22:19;13.63;;;11.13;;
66680;SDS011;53575;51.366;12.350;2022-07-23T13:24:44;14.35;;;10.52;;
66680;SDS011;53575;51.366;12.350;2022-07-23T13:27:10;12.63;;;11.20;;
66680;SDS011;53575;51.366;12.350;2022-07-23T13:29:35;10.77;;;9.07;;
66680;SDS011;53575;51.366;12.350;2022-07-23T13:32:00;13.25;;;10.88;;
66680;SDS011;53575;51.366;12.350;2022-07-23T13:34:26;13.30;;;8.70;;
66680;SDS011;53575;51.366;12.350;2022-07-23T13:36:51;10.73;;;9.15;;
66680;SDS011;53575;51.366;12.350;2022-07-23T13:39:17;15.88;;;10.25;;
66680;SDS011;53575;51.366;12.350;2022-07-23T13:41:42;13.85;;;10.35;;
66680;SDS011;53575;51.366;12.350;2022-07-23T13:44:07;11.18;;;9.27;;
66680;SDS011;53575;51.366;12.350;2022-07-23T13:46:33;12.98;;;10.70;;
66680;SDS011;53575;51.366;12.350;2022-07-23T13:48:59;12.10;;;10.40;;
66680;SDS011;53575;51.366;12.350;2022-07-23T13:51:25;11.90;;;10.07;;
66680;SDS011;53575;51.366;12.350;2022-07-23T13:53:50;11.18;;;9.85;;
66680;SDS011;53575;51.366;12.350;2022-07-23T13:56:16;11.02;;;9.80;;
66680;SDS011;53575;51.366;12.350;2022-07-23T13:58:41;14.23;;;11.68;;
66680;SDS011;53575;51.366;12.350;2022-07-23T14:01:06;13.02;;;9.43;;
66680;SDS011;53575;51.366;12.350;2022-07-23T14:03:32;11.65;;;9.43;;
66680;SDS011;53575;51.366;12.350;2022-07-23T14:05:57;12.07;;;9.48;;
66680;SDS011;53575;51.366;12.350;2022-07-23T14:08:24;11.98;;;9.13;;
66680;SDS011;53575;51.366;12.350;2022-07-23T14:10:49;13.82;;;8.40;;
66680;SDS011;53575;51.366;12.350;2022-07-23T14:13:14;13.02;;;8.73;;
66680;SDS011;53575;51.366;12.350;2022-07-23T14:15:40;10.27;;;9.07;;
66680;SDS011;53575;51.366;12.350;2022-07-23T14:18:05;10.75;;;9.63;;
66680;SDS011;53575;51.366;12.350;2022-07-23T14:20:32;13.88;;;9.35;;
66680;SDS011;53575;51.366;12.350;2022-07-23T14:22:57;10.65;;;8.80;;
66680;SDS011;53575;51.366;12.350;2022-07-23T14:25:25;12.23;;;9.27;;
66680;SDS011;53575;51.366;12.350;2022-07-23T14:27:51;12.73;;;10.75;;
66680;SDS011;53575;51.366;12.350;2022-07-23T14:30:16;12.95;;;8.88;;
66680;SDS011;53575;51.366;12.350;2022-07-23T14:32:42;12.57;;;10.63;;
66680;SDS011;53575;51.366;12.350;2022-07-23T14:35:07;11.30;;;8.80;;
66680;SDS011;53575;51.366;12.350;2022-07-23T14:37:33;10.07;;;8.80;;
66680;SDS011;53575;51.366;12.350;2022-07-23T14:39:58;10.80;;;8.93;;
66680;SDS011;53575;51.366;12.350;2022-07-23T14:42:24;10.13;;;8.85;;
66680;SDS011;53575;51.366;12.350;2022-07-23T14:44:50;10.93;;;9.23;;
66680;SDS011;53575;51.366;12.350;2022-07-23T14:47:15;11.65;;;8.68;;
66680;SDS011;53575;51.366;12.350;2022-07-23T14:49:40;10.70;;;9.10;;
66680;SDS011;53575;51.366;12.350;2022-07-23T14:52:06;11.20;;;8.63;;
66680;SDS011;53575;51.366;12.350;2022-07-23T14:54:32;11.07;;;9.85;;
66680;SDS011;53575;51.366;12.350;2022-07-23T14:56:59;10.40;;;9.27;;
66680;SDS011;53575;51.366;12.350;2022-07-23T14:59:27;10.32;;;8.43;;
66680;SDS011;53575;51.366;12.350;2022-07-23T15:01:53;12.27;;;8.95;;
66680;SDS011;53575;51.366;12.350;2022-07-23T15:04:19;14.45;;;8.23;;
66680;SDS011;53575;51.366;12.350;2022-07-23T15:06:45;11.02;;;9.15;;
66680;SDS011;53575;51.366;12.350;2022-07-23T15:09:10;10.77;;;8.38;;
66680;SDS011;53575;51.366;12.350;2022-07-23T15:11:36;10.95;;;8.65;;
66680;SDS011;53575;51.366;12.350;2022-07-23T15:14:05;9.02;;;8.05;;
66680;SDS011;53575;51.366;12.350;2022-07-23T15:16:31;10.40;;;9.40;;